15 mars 2014

Convoyage du Pilatus HB-FLA de Altenrhein (Suisse) vers Hassi-Messaoud (Algérie)

    Jeudi 7 mars 2014, il fait beau. C'est le départ pour un long vol un peu inabituel, de la Suisse vers l'Algérie. Un peu de cargo, beaucoup de fuel, et surtout aucun passager !         Préparion du vol Ferry vers l'Agérie  -  Zurich  -  6 mars 2014     ----------    1ère Etape :  Altenrhein (LSZR)   ~>   Menorca (LEMH) - 07 mars 2014   ----------       --------------------     PC-6... [Lire la suite]
Posté par letsfly à 20:23 - Commentaires [0] - Permalien [#]

15 mars 2014

Monsieur Désert, est très très fâché !!!

     DAUH 101630Z 34040G50KT 0050 SS VV/// 28/07 Q1007  DAUH 101800Z 33038KT 0020 SS VV/// 18/05 Q1010      10 février 2014, Il était grand temps de se poser... Un vrai mur de sable se présente du Nord, alors que le vent est bel et bien établi du Sud-Ouest.   ----------------------------          Peu de temps avant l'arrivée du mur de sable.    ----------------------------      ... [Lire la suite]
Posté par letsfly à 11:26 - Commentaires [0] - Permalien [#]